sensor_id;sensor_type;location;lat;lon;timestamp;pressure;altitude;pressure_sealevel;temperature;humidity
31082;BME280;17737;52.586;13.284;2022-09-01T00:00:24;101909.19;;;14.90;100.00
31082;BME280;17737;52.586;13.284;2022-09-01T00:02:54;101908.94;;;14.95;100.00
31082;BME280;17737;52.586;13.284;2022-09-01T00:05:24;101908.59;;;14.97;100.00
31082;BME280;17737;52.586;13.284;2022-09-01T00:07:52;101907.72;;;14.93;100.00
31082;BME280;17737;52.586;13.284;2022-09-01T00:10:20;101908.53;;;14.81;100.00
31082;BME280;17737;52.586;13.284;2022-09-01T00:12:48;101913.16;;;14.81;100.00
31082;BME280;17737;52.586;13.284;2022-09-01T00:15:16;101898.22;;;14.74;100.00
31082;BME280;17737;52.586;13.284;2022-09-01T00:17:44;101911.69;;;14.83;100.00
31082;BME280;17737;52.586;13.284;2022-09-01T00:20:12;101912.03;;;14.82;100.00
31082;BME280;17737;52.586;13.284;2022-09-01T00:22:47;101915.53;;;14.82;100.00
31082;BME280;17737;52.586;13.284;2022-09-01T00:25:15;101909.97;;;14.79;100.00
31082;BME280;17737;52.586;13.284;2022-09-01T00:27:46;101918.03;;;14.75;100.00
31082;BME280;17737;52.586;13.284;2022-09-01T00:30:14;101908.41;;;14.78;100.00
31082;BME280;17737;52.586;13.284;2022-09-01T00:36:15;101817.44;;;14.07;100.00
31082;BME280;17737;52.586;13.284;2022-09-01T00:38:45;101894.63;;;14.70;100.00
31082;BME280;17737;52.586;13.284;2022-09-01T00:41:13;101907.16;;;14.75;100.00
31082;BME280;17737;52.586;13.284;2022-09-01T00:43:46;101899.94;;;14.67;100.00
31082;BME280;17737;52.586;13.284;2022-09-01T00:46:17;101900.06;;;14.70;100.00
31082;BME280;17737;52.586;13.284;2022-09-01T00:48:56;101902.31;;;14.68;100.00
31082;BME280;17737;52.586;13.284;2022-09-01T00:51:28;101908.56;;;14.69;100.00
31082;BME280;17737;52.586;13.284;2022-09-01T00:54:00;101903.13;;;14.69;100.00
31082;BME280;17737;52.586;13.284;2022-09-01T00:56:30;101904.13;;;14.64;100.00
31082;BME280;17737;52.586;13.284;2022-09-01T00:59:00;101905.16;;;14.60;100.00
31082;BME280;17737;52.586;13.284;2022-09-01T01:01:28;101911.16;;;14.53;100.00
31082;BME280;17737;52.586;13.284;2022-09-01T01:03:56;101905.06;;;14.56;100.00
31082;BME280;17737;52.586;13.284;2022-09-01T01:06:27;101902.41;;;14.47;100.00
31082;BME280;17737;52.586;13.284;2022-09-01T01:08:59;101911.03;;;14.49;100.00
31082;BME280;17737;52.586;13.284;2022-09-01T01:11:29;101913.97;;;14.44;100.00
31082;BME280;17737;52.586;13.284;2022-09-01T01:14:00;101904.22;;;14.43;100.00
31082;BME280;17737;52.586;13.284;2022-09-01T01:16:38;101906.03;;;14.39;100.00
31082;BME280;17737;52.586;13.284;2022-09-01T01:19:14;101908.19;;;14.34;100.00
31082;BME280;17737;52.586;13.284;2022-09-01T01:22:10;101908.19;;;14.34;100.00
31082;BME280;17737;52.586;13.284;2022-09-01T01:25:05;101909.56;;;14.27;100.00
31082;BME280;17737;52.586;13.284;2022-09-01T01:27:34;101904.47;;;14.26;100.00
31082;BME280;17737;52.586;13.284;2022-09-01T01:30:10;101909.22;;;14.29;100.00
31082;BME280;17737;52.586;13.284;2022-09-01T01:32:40;101912.28;;;14.27;100.00
31082;BME280;17737;52.586;13.284;2022-09-01T01:35:09;101910.91;;;14.21;100.00
31082;BME280;17737;52.586;13.284;2022-09-01T01:37:40;101911.00;;;14.37;100.00
31082;BME280;17737;52.586;13.284;2022-09-01T01:40:19;101909.22;;;14.29;100.00
31082;BME280;17737;52.586;13.284;2022-09-01T01:42:50;101913.72;;;14.25;100.00
31082;BME280;17737;52.586;13.284;2022-09-01T01:45:21;101899.59;;;14.19;100.00
31082;BME280;17737;52.586;13.284;2022-09-01T01:47:52;101901.31;;;14.24;100.00
31082;BME280;17737;52.586;13.284;2022-09-01T01:50:21;101894.16;;;14.19;100.00
31082;BME280;17737;52.586;13.284;2022-09-01T01:52:51;101899.03;;;14.26;100.00
31082;BME280;17737;52.586;13.284;2022-09-01T01:55:25;101901.75;;;14.14;100.00
31082;BME280;17737;52.586;13.284;2022-09-01T01:57:54;101907.38;;;14.09;100.00
31082;BME280;17737;52.586;13.284;2022-09-01T02:00:27;101905.69;;;14.04;100.00
31082;BME280;17737;52.586;13.284;2022-09-01T02:02:57;101911.78;;;14.01;100.00
31082;BME280;17737;52.586;13.284;2022-09-01T02:05:29;101897.66;;;13.95;100.00
31082;BME280;17737;52.586;13.284;2022-09-01T02:08:00;101904.31;;;13.86;100.00
31082;BME280;17737;52.586;13.284;2022-09-01T02:10:35;101903.50;;;13.85;100.00
31082;BME280;17737;52.586;13.284;2022-09-01T02:13:06;101904.41;;;13.77;100.00
31082;BME280;17737;52.586;13.284;2022-09-01T02:15:44;101907.47;;;13.75;100.00
31082;BME280;17737;52.586;13.284;2022-09-01T02:18:16;101911.25;;;13.62;100.00
31082;BME280;17737;52.586;13.284;2022-09-01T02:20:48;101899.63;;;13.62;100.00
31082;BME280;17737;52.586;13.284;2022-09-01T02:23:17;101906.28;;;13.64;100.00
31082;BME280;17737;52.586;13.284;2022-09-01T02:25:52;101896.44;;;13.60;100.00
31082;BME280;17737;52.586;13.284;2022-09-01T02:28:43;101915.53;;;13.63;100.00
31082;BME280;17737;52.586;13.284;2022-09-01T02:31:21;101898.03;;;13.61;100.00
31082;BME280;17737;52.586;13.284;2022-09-01T02:33:51;101904.69;;;13.63;100.00
31082;BME280;17737;52.586;13.284;2022-09-01T02:36:20;101899.50;;;13.58;100.00
31082;BME280;17737;52.586;13.284;2022-09-01T02:38:51;101902.53;;;13.56;100.00
31082;BME280;17737;52.586;13.284;2022-09-01T02:41:23;101904.31;;;13.52;100.00
31082;BME280;17737;52.586;13.284;2022-09-01T02:43:54;101907.03;;;13.52;100.00
31082;BME280;17737;52.586;13.284;2022-09-01T02:46:23;101904.56;;;13.47;100.00
31082;BME280;17737;52.586;13.284;2022-09-01T02:48:51;101899.41;;;13.34;100.00
31082;BME280;17737;52.586;13.284;2022-09-01T02:51:21;101896.25;;;13.31;100.00
31082;BME280;17737;52.586;13.284;2022-09-01T02:53:51;101896.44;;;13.26;100.00
31082;BME280;17737;52.586;13.284;2022-09-01T02:56:22;101895.19;;;13.24;100.00
31082;BME280;17737;52.586;13.284;2022-09-01T02:58:53;101898.06;;;13.19;100.00
31082;BME280;17737;52.586;13.284;2022-09-01T03:01:23;101896.66;;;13.13;100.00
31082;BME280;17737;52.586;13.284;2022-09-01T03:03:56;101871.34;;;12.96;100.00
31082;BME280;17737;52.586;13.284;2022-09-01T03:06:27;101887.63;;;13.08;100.00
31082;BME280;17737;52.586;13.284;2022-09-01T03:09:00;101890.41;;;13.00;100.00
31082;BME280;17737;52.586;13.284;2022-09-01T03:11:35;101895.72;;;12.96;100.00
31082;BME280;17737;52.586;13.284;2022-09-01T03:14:06;101899.19;;;12.97;100.00
31082;BME280;17737;52.586;13.284;2022-09-01T03:16:36;101894.53;;;12.85;100.00
31082;BME280;17737;52.586;13.284;2022-09-01T03:19:06;101891.47;;;12.87;100.00
31082;BME280;17737;52.586;13.284;2022-09-01T03:21:39;101890.69;;;12.86;100.00
31082;BME280;17737;52.586;13.284;2022-09-01T03:24:10;101888.81;;;12.78;100.00
31082;BME280;17737;52.586;13.284;2022-09-01T03:26:44;101895.88;;;12.70;100.00
31082;BME280;17737;52.586;13.284;2022-09-01T03:29:16;101881.75;;;12.65;100.00
31082;BME280;17737;52.586;13.284;2022-09-01T03:31:44;101884.00;;;12.63;100.00
31082;BME280;17737;52.586;13.284;2022-09-01T03:34:12;101894.19;;;12.57;100.00
31082;BME280;17737;52.586;13.284;2022-09-01T03:36:41;101891.63;;;12.60;100.00
31082;BME280;17737;52.586;13.284;2022-09-01T03:39:15;101885.94;;;12.53;100.00
31082;BME280;17737;52.586;13.284;2022-09-01T03:41:46;101892.47;;;12.52;100.00
31082;BME280;17737;52.586;13.284;2022-09-01T03:44:14;101887.28;;;12.47;100.00
31082;BME280;17737;52.586;13.284;2022-09-01T03:46:43;101899.03;;;12.51;100.00
31082;BME280;17737;52.586;13.284;2022-09-01T03:49:11;101894.41;;;12.52;100.00
31082;BME280;17737;52.586;13.284;2022-09-01T03:51:41;101895.28;;;12.35;100.00
31082;BME280;17737;52.586;13.284;2022-09-01T03:54:10;101899.69;;;12.40;100.00
31082;BME280;17737;52.586;13.284;2022-09-01T03:56:39;101894.78;;;12.42;100.00
31082;BME280;17737;52.586;13.284;2022-09-01T03:59:10;101899.75;;;12.31;100.00
31082;BME280;17737;52.586;13.284;2022-09-01T04:01:43;101903.31;;;12.23;100.00
31082;BME280;17737;52.586;13.284;2022-09-01T04:04:12;101899.28;;;12.29;100.00
31082;BME280;17737;52.586;13.284;2022-09-01T04:06:45;101893.41;;;12.27;100.00
31082;BME280;17737;52.586;13.284;2022-09-01T04:09:14;101901.56;;;12.18;100.00
31082;BME280;17737;52.586;13.284;2022-09-01T04:11:42;101899.78;;;12.22;100.00
31082;BME280;17737;52.586;13.284;2022-09-01T04:14:14;101892.00;;;12.21;100.00
31082;BME280;17737;52.586;13.284;2022-09-01T04:16:45;101891.06;;;12.17;100.00
31082;BME280;17737;52.586;13.284;2022-09-01T04:19:33;101887.44;;;12.12;100.00
31082;BME280;17737;52.586;13.284;2022-09-01T04:22:05;101885.25;;;12.06;100.00
31082;BME280;17737;52.586;13.284;2022-09-01T04:24:40;101886.66;;;12.03;100.00
31082;BME280;17737;52.586;13.284;2022-09-01T04:27:12;101885.25;;;12.06;100.00
31082;BME280;17737;52.586;13.284;2022-09-01T04:29:48;101886.31;;;12.13;100.00
31082;BME280;17737;52.586;13.284;2022-09-01T04:32:15;101882.78;;;12.22;100.00
31082;BME280;17737;52.586;13.284;2022-09-01T04:34:47;101893.56;;;12.30;100.00
31082;BME280;17737;52.586;13.284;2022-09-01T04:37:16;101880.34;;;12.29;100.00
31082;BME280;17737;52.586;13.284;2022-09-01T04:39:50;101893.88;;;12.29;100.00
31082;BME280;17737;52.586;13.284;2022-09-01T04:42:23;101890.66;;;12.35;100.00
31082;BME280;17737;52.586;13.284;2022-09-01T04:44:56;101894.06;;;12.24;100.00
31082;BME280;17737;52.586;13.284;2022-09-01T04:47:35;101889.59;;;12.28;100.00
31082;BME280;17737;52.586;13.284;2022-09-01T04:50:08;101891.53;;;12.19;100.00
31082;BME280;17737;52.586;13.284;2022-09-01T04:52:41;101895.63;;;12.33;100.00
31082;BME280;17737;52.586;13.284;2022-09-01T04:55:10;101897.50;;;12.33;100.00
31082;BME280;17737;52.586;13.284;2022-09-01T04:57:44;101897.81;;;12.40;100.00
31082;BME280;17737;52.586;13.284;2022-09-01T05:00:17;101895.09;;;12.40;100.00
31082;BME280;17737;52.586;13.284;2022-09-01T05:02:52;101899.03;;;12.51;100.00
31082;BME280;17737;52.586;13.284;2022-09-01T05:05:35;101897.72;;;12.57;100.00
31082;BME280;17737;52.586;13.284;2022-09-01T05:08:08;101895.84;;;12.49;100.00
31082;BME280;17737;52.586;13.284;2022-09-01T05:10:50;101893.97;;;12.41;100.00
31082;BME280;17737;52.586;13.284;2022-09-01T05:13:24;101890.28;;;12.46;100.00
31082;BME280;17737;52.586;13.284;2022-09-01T05:16:04;101885.63;;;12.55;100.00
31082;BME280;17737;52.586;13.284;2022-09-01T05:18:53;101882.94;;;12.55;100.00
31082;BME280;17737;52.586;13.284;2022-09-01T05:21:23;101896.31;;;12.51;100.00
31082;BME280;17737;52.586;13.284;2022-09-01T05:23:54;101890.16;;;12.42;100.00
31082;BME280;17737;52.586;13.284;2022-09-01T05:26:30;101879.53;;;12.37;100.00
31082;BME280;17737;52.586;13.284;2022-09-01T05:29:37;101896.03;;;12.44;100.00
31082;BME280;17737;52.586;13.284;2022-09-01T05:32:19;101882.09;;;12.33;100.00
31082;BME280;17737;52.586;13.284;2022-09-01T05:34:54;101897.09;;;12.52;100.00
31082;BME280;17737;52.586;13.284;2022-09-01T05:37:22;101894.34;;;12.60;100.00
31082;BME280;17737;52.586;13.284;2022-09-01T05:39:54;101891.91;;;12.68;100.00
31082;BME280;17737;52.586;13.284;2022-09-01T05:42:22;101888.94;;;12.81;100.00
31082;BME280;17737;52.586;13.284;2022-09-01T05:44:50;101898.81;;;12.86;100.00
31082;BME280;17737;52.586;13.284;2022-09-01T05:47:19;101895.22;;;12.94;100.00
31082;BME280;17737;52.586;13.284;2022-09-01T05:49:49;101902.44;;;13.11;100.00
31082;BME280;17737;52.586;13.284;2022-09-01T05:52:20;101890.22;;;13.05;100.00
31082;BME280;17737;52.586;13.284;2022-09-01T05:54:52;101893.53;;;13.31;100.00
31082;BME280;17737;52.586;13.284;2022-09-01T05:57:21;101898.94;;;13.31;100.00
31082;BME280;17737;52.586;13.284;2022-09-01T06:00:01;101897.69;;;13.29;100.00
31082;BME280;17737;52.586;13.284;2022-09-01T06:02:38;101897.16;;;13.36;100.00
31082;BME280;17737;52.586;13.284;2022-09-01T06:05:09;101900.50;;;13.53;100.00
31082;BME280;17737;52.586;13.284;2022-09-01T06:07:40;101903.78;;;13.59;100.00
31082;BME280;17737;52.586;13.284;2022-09-01T06:10:09;101900.72;;;13.61;100.00
31082;BME280;17737;52.586;13.284;2022-09-01T06:12:38;101886.44;;;13.72;100.00
31082;BME280;17737;52.586;13.284;2022-09-01T06:15:07;101887.03;;;13.90;100.00
31082;BME280;17737;52.586;13.284;2022-09-01T06:17:42;101892.56;;;14.06;100.00
31082;BME280;17737;52.586;13.284;2022-09-01T06:20:11;101888.75;;;14.07;100.00
31082;BME280;17737;52.586;13.284;2022-09-01T06:22:39;101889.66;;;14.11;100.00
31082;BME280;17737;52.586;13.284;2022-09-01T06:25:08;101890.47;;;14.24;100.00
31082;BME280;17737;52.586;13.284;2022-09-01T06:27:36;101883.75;;;14.34;100.00
31082;BME280;17737;52.586;13.284;2022-09-01T06:30:08;101891.13;;;14.33;100.00
31082;BME280;17737;52.586;13.284;2022-09-01T06:32:51;101895.41;;;14.46;100.00
31082;BME280;17737;52.586;13.284;2022-09-01T06:35:21;101890.34;;;14.57;100.00
31082;BME280;17737;52.586;13.284;2022-09-01T06:37:55;101895.41;;;14.71;100.00
31082;BME280;17737;52.586;13.284;2022-09-01T06:40:24;101893.69;;;14.79;100.00
31082;BME280;17737;52.586;13.284;2022-09-01T06:42:52;101902.66;;;14.79;100.00
31082;BME280;17737;52.586;13.284;2022-09-01T06:45:22;101902.97;;;14.78;100.00
31082;BME280;17737;52.586;13.284;2022-09-01T06:47:52;101899.44;;;14.89;100.00
31082;BME280;17737;52.586;13.284;2022-09-01T06:50:26;101902.03;;;14.86;100.00
31082;BME280;17737;52.586;13.284;2022-09-01T06:53:15;101899.41;;;15.02;100.00
31082;BME280;17737;52.586;13.284;2022-09-01T06:56:01;101896.81;;;15.05;100.00
31082;BME280;17737;52.586;13.284;2022-09-01T06:58:29;101902.91;;;15.02;100.00
31082;BME280;17737;52.586;13.284;2022-09-01T07:00:58;101907.09;;;14.99;100.00
31082;BME280;17737;52.586;13.284;2022-09-01T07:03:33;101910.00;;;15.19;100.00
31082;BME280;17737;52.586;13.284;2022-09-01T07:06:04;101903.69;;;15.15;100.00
31082;BME280;17737;52.586;13.284;2022-09-01T07:08:35;101888.03;;;15.24;100.00
31082;BME280;17737;52.586;13.284;2022-09-01T07:11:27;101901.75;;;15.43;100.00
31082;BME280;17737;52.586;13.284;2022-09-01T07:14:17;101901.59;;;15.52;100.00
31082;BME280;17737;52.586;13.284;2022-09-01T07:16:47;101911.63;;;15.64;100.00
31082;BME280;17737;52.586;13.284;2022-09-01T07:19:20;101907.53;;;15.70;100.00
31082;BME280;17737;52.586;13.284;2022-09-01T07:22:09;101906.19;;;15.64;100.00
31082;BME280;17737;52.586;13.284;2022-09-01T07:24:57;101911.13;;;15.74;100.00
31082;BME280;17737;52.586;13.284;2022-09-01T07:27:45;101914.41;;;15.80;100.00
31082;BME280;17737;52.586;13.284;2022-09-01T07:30:16;101903.78;;;15.90;100.00
31082;BME280;17737;52.586;13.284;2022-09-01T07:32:49;101908.53;;;15.93;100.00
31082;BME280;17737;52.586;13.284;2022-09-01T07:35:21;101903.69;;;16.03;100.00
31082;BME280;17737;52.586;13.284;2022-09-01T07:37:50;101902.56;;;16.04;100.00
31082;BME280;17737;52.586;13.284;2022-09-01T07:40:40;101904.41;;;16.15;100.00
31082;BME280;17737;52.586;13.284;2022-09-01T07:43:28;101907.00;;;16.28;100.00
31082;BME280;17737;52.586;13.284;2022-09-01T07:46:02;101900.94;;;16.34;100.00
31082;BME280;17737;52.586;13.284;2022-09-01T07:48:52;101905.06;;;16.44;100.00
31082;BME280;17737;52.586;13.284;2022-09-01T07:51:42;101906.91;;;16.56;100.00
31082;BME280;17737;52.586;13.284;2022-09-01T07:54:11;101917.00;;;16.55;100.00
31082;BME280;17737;52.586;13.284;2022-09-01T07:56:39;101899.22;;;16.42;100.00
31082;BME280;17737;52.586;13.284;2022-09-01T07:59:07;101893.53;;;16.67;100.00
31082;BME280;17737;52.586;13.284;2022-09-01T08:01:41;101904.38;;;16.82;100.00
31082;BME280;17737;52.586;13.284;2022-09-01T08:04:09;101899.16;;;16.93;100.00
31082;BME280;17737;52.586;13.284;2022-09-01T08:06:37;101901.25;;;17.00;100.00
31082;BME280;17737;52.586;13.284;2022-09-01T08:09:08;101903.13;;;17.15;100.00
31082;BME280;17737;52.586;13.284;2022-09-01T08:11:57;101909.50;;;17.23;100.00
31082;BME280;17737;52.586;13.284;2022-09-01T08:14:28;101904.91;;;17.27;100.00
31082;BME280;17737;52.586;13.284;2022-09-01T08:16:59;101899.69;;;17.18;100.00
31082;BME280;17737;52.586;13.284;2022-09-01T08:19:49;101905.16;;;17.18;100.00
31082;BME280;17737;52.586;13.284;2022-09-01T08:22:19;101898.03;;;17.33;100.00
31082;BME280;17737;52.586;13.284;2022-09-01T08:24:52;101903.50;;;17.56;99.86
31082;BME280;17737;52.586;13.284;2022-09-01T08:27:21;101884.72;;;17.51;97.53
31082;BME280;17737;52.586;13.284;2022-09-01T08:29:49;101890.19;;;17.51;95.45
31082;BME280;17737;52.586;13.284;2022-09-01T08:32:17;101842.59;;;17.06;95.65
31082;BME280;17737;52.586;13.284;2022-09-01T08:34:46;101887.16;;;17.56;96.54
31082;BME280;17737;52.586;13.284;2022-09-01T08:37:14;101887.66;;;17.62;91.97
31082;BME280;17737;52.586;13.284;2022-09-01T08:39:42;101898.75;;;17.72;92.33
31082;BME280;17737;52.586;13.284;2022-09-01T08:42:18;101885.75;;;17.66;90.01
31082;BME280;17737;52.586;13.284;2022-09-01T08:45:03;101891.88;;;17.59;88.48
31082;BME280;17737;52.586;13.284;2022-09-01T08:47:39;101891.59;;;17.64;90.58
31082;BME280;17737;52.586;13.284;2022-09-01T08:50:27;101894.66;;;17.82;89.27
31082;BME280;17737;52.586;13.284;2022-09-01T08:53:02;101880.75;;;17.91;86.54
31082;BME280;17737;52.586;13.284;2022-09-01T08:55:40;101875.69;;;17.70;85.65
31082;BME280;17737;52.586;13.284;2022-09-01T08:58:14;101892.13;;;17.73;86.52
31082;BME280;17737;52.586;13.284;2022-09-01T09:00:51;101883.44;;;17.87;83.84
31082;BME280;17737;52.586;13.284;2022-09-01T09:03:32;101884.19;;;17.84;79.77
31082;BME280;17737;52.586;13.284;2022-09-01T09:06:14;101886.31;;;17.94;82.39
31082;BME280;17737;52.586;13.284;2022-09-01T09:08:53;101875.72;;;17.93;84.37
31082;BME280;17737;52.586;13.284;2022-09-01T09:11:37;101863.59;;;18.13;84.12
31082;BME280;17737;52.586;13.284;2022-09-01T09:14:40;101879.34;;;18.23;82.93
31082;BME280;17737;52.586;13.284;2022-09-01T09:17:22;101880.91;;;18.51;83.84
31082;BME280;17737;52.586;13.284;2022-09-01T09:19:56;101881.41;;;18.57;82.79
31082;BME280;17737;52.586;13.284;2022-09-01T09:22:24;101869.47;;;18.42;79.00
31082;BME280;17737;52.586;13.284;2022-09-01T09:24:57;101874.66;;;18.50;80.26
31082;BME280;17737;52.586;13.284;2022-09-01T09:27:31;101880.06;;;18.73;80.03
31082;BME280;17737;52.586;13.284;2022-09-01T09:30:04;101865.25;;;18.74;78.62
31082;BME280;17737;52.586;13.284;2022-09-01T09:32:47;101869.19;;;18.77;77.52
31082;BME280;17737;52.586;13.284;2022-09-01T09:35:38;101865.59;;;19.03;75.38
31082;BME280;17737;52.586;13.284;2022-09-01T09:38:16;101861.66;;;19.00;71.21
31082;BME280;17737;52.586;13.284;2022-09-01T09:40:59;101868.91;;;18.86;74.29
31082;BME280;17737;52.586;13.284;2022-09-01T09:43:53;101842.25;;;18.75;72.86
31082;BME280;17737;52.586;13.284;2022-09-01T09:46:33;101850.59;;;18.90;68.49
31082;BME280;17737;52.586;13.284;2022-09-01T09:49:10;101853.72;;;19.25;68.65
31082;BME280;17737;52.586;13.284;2022-09-01T09:51:43;101857.31;;;19.30;63.38
31082;BME280;17737;52.586;13.284;2022-09-01T09:54:18;101845.56;;;19.29;61.76
31082;BME280;17737;52.586;13.284;2022-09-01T09:57:02;101846.19;;;19.15;64.48
31082;BME280;17737;52.586;13.284;2022-09-01T09:59:39;101850.25;;;19.29;65.54
31082;BME280;17737;52.586;13.284;2022-09-01T10:02:30;101856.50;;;19.29;62.40
31082;BME280;17737;52.586;13.284;2022-09-01T10:05:20;101861.13;;;19.21;64.44
31082;BME280;17737;52.586;13.284;2022-09-01T10:07:51;101854.19;;;19.31;64.23
31082;BME280;17737;52.586;13.284;2022-09-01T10:10:35;101836.84;;;19.54;63.31
31082;BME280;17737;52.586;13.284;2022-09-01T10:13:10;101842.13;;;19.77;62.29
31082;BME280;17737;52.586;13.284;2022-09-01T10:15:42;101854.78;;;19.92;62.17
31082;BME280;17737;52.586;13.284;2022-09-01T10:18:20;101848.44;;;19.84;60.77
31082;BME280;17737;52.586;13.284;2022-09-01T10:20:57;101841.56;;;20.05;58.63
31082;BME280;17737;52.586;13.284;2022-09-01T10:23:32;101840.38;;;20.02;57.12
31082;BME280;17737;52.586;13.284;2022-09-01T10:26:06;101843.50;;;20.04;58.05
31082;BME280;17737;52.586;13.284;2022-09-01T10:28:45;101842.03;;;19.66;59.93
31082;BME280;17737;52.586;13.284;2022-09-01T10:31:20;101848.91;;;19.93;58.78
31082;BME280;17737;52.586;13.284;2022-09-01T10:33:56;101842.03;;;20.14;58.02
31082;BME280;17737;52.586;13.284;2022-09-01T10:36:26;101842.78;;;20.11;54.35
31082;BME280;17737;52.586;13.284;2022-09-01T10:38:56;101849.22;;;20.40;53.08
31082;BME280;17737;52.586;13.284;2022-09-01T10:41:50;101835.84;;;20.28;53.08
31082;BME280;17737;52.586;13.284;2022-09-01T10:44:27;101841.38;;;20.35;53.76
31082;BME280;17737;52.586;13.284;2022-09-01T10:47:04;101836.81;;;20.57;52.71
31082;BME280;17737;52.586;13.284;2022-09-01T10:50:03;101833.69;;;20.55;52.95
31082;BME280;17737;52.586;13.284;2022-09-01T10:52:55;101834.47;;;20.55;53.59
31082;BME280;17737;52.586;13.284;2022-09-01T10:55:35;101834.75;;;20.47;52.11
31082;BME280;17737;52.586;13.284;2022-09-01T10:58:38;101834.34;;;20.37;52.58
31082;BME280;17737;52.586;13.284;2022-09-01T11:02:03;101828.31;;;20.87;50.67
31082;BME280;17737;52.586;13.284;2022-09-01T11:05:15;101831.50;;;20.93;49.04
31082;BME280;17737;52.586;13.284;2022-09-01T11:07:44;101827.75;;;20.49;49.50
31082;BME280;17737;52.586;13.284;2022-09-01T11:10:44;101832.78;;;20.43;49.23
31082;BME280;17737;52.586;13.284;2022-09-01T11:13:35;101832.34;;;20.27;48.99
31082;BME280;17737;52.586;13.284;2022-09-01T11:16:26;101816.91;;;20.71;48.88
31082;BME280;17737;52.586;13.284;2022-09-01T11:19:36;101826.41;;;20.98;46.67
31082;BME280;17737;52.586;13.284;2022-09-01T11:22:24;101820.88;;;20.84;45.56
31082;BME280;17737;52.586;13.284;2022-09-01T11:25:12;101819.78;;;21.10;43.79
31082;BME280;17737;52.586;13.284;2022-09-01T11:28:39;101813.47;;;21.02;42.99
31082;BME280;17737;52.586;13.284;2022-09-01T11:31:22;101813.91;;;21.26;43.69
31082;BME280;17737;52.586;13.284;2022-09-01T11:34:01;101817.81;;;21.07;45.60
31082;BME280;17737;52.586;13.284;2022-09-01T11:36:45;101804.50;;;21.16;44.58
31082;BME280;17737;52.586;13.284;2022-09-01T11:39:30;101814.38;;;21.42;43.28
31082;BME280;17737;52.586;13.284;2022-09-01T11:42:02;101821.44;;;21.72;43.90
31082;BME280;17737;52.586;13.284;2022-09-01T11:44:41;101828.50;;;21.66;44.05
31082;BME280;17737;52.586;13.284;2022-09-01T11:47:18;101823.66;;;21.05;49.41
31082;BME280;17737;52.586;13.284;2022-09-01T11:49:53;101828.38;;;21.01;49.82
31082;BME280;17737;52.586;13.284;2022-09-01T11:52:27;101821.34;;;21.18;49.97
31082;BME280;17737;52.586;13.284;2022-09-01T11:54:59;101830.75;;;21.13;49.78
31082;BME280;17737;52.586;13.284;2022-09-01T11:57:30;101821.81;;;21.34;49.86
31082;BME280;17737;52.586;13.284;2022-09-01T12:00:02;101828.09;;;21.46;48.89
31082;BME280;17737;52.586;13.284;2022-09-01T12:02:34;101809.63;;;21.28;49.08
31082;BME280;17737;52.586;13.284;2022-09-01T12:05:24;101821.38;;;21.29;48.82
31082;BME280;17737;52.586;13.284;2022-09-01T12:07:55;101828.84;;;21.35;49.07
31082;BME280;17737;52.586;13.284;2022-09-01T12:10:31;101825.28;;;21.13;49.81
31082;BME280;17737;52.586;13.284;2022-09-01T12:13:05;101825.28;;;21.28;50.03
31082;BME280;17737;52.586;13.284;2022-09-01T12:15:35;101826.84;;;21.22;49.97
31082;BME280;17737;52.586;13.284;2022-09-01T12:18:29;101822.53;;;21.13;51.05
31082;BME280;17737;52.586;13.284;2022-09-01T12:20:59;101809.47;;;20.71;52.49
31082;BME280;17737;52.586;13.284;2022-09-01T12:23:32;101821.13;;;20.54;54.28
31082;BME280;17737;52.586;13.284;2022-09-01T12:26:05;101825.31;;;20.30;55.19
31082;BME280;17737;52.586;13.284;2022-09-01T12:28:35;101814.63;;;20.14;55.00
31082;BME280;17737;52.586;13.284;2022-09-01T12:31:12;101820.38;;;19.94;54.01
31082;BME280;17737;52.586;13.284;2022-09-01T12:33:43;101823.44;;;19.86;54.52
31082;BME280;17737;52.586;13.284;2022-09-01T12:36:21;101818.38;;;19.88;55.03
31082;BME280;17737;52.586;13.284;2022-09-01T12:38:52;101812.69;;;20.14;54.60
31082;BME280;17737;52.586;13.284;2022-09-01T12:41:25;101806.22;;;20.44;53.37
31082;BME280;17737;52.586;13.284;2022-09-01T12:44:25;101808.72;;;20.85;51.96
31082;BME280;17737;52.586;13.284;2022-09-01T12:46:57;101804.91;;;21.18;50.44
31082;BME280;17737;52.586;13.284;2022-09-01T12:49:34;101802.16;;;21.22;50.51
31082;BME280;17737;52.586;13.284;2022-09-01T12:52:22;101803.78;;;21.44;49.17
31082;BME280;17737;52.586;13.284;2022-09-01T12:55:05;101802.16;;;21.22;49.24
31082;BME280;17737;52.586;13.284;2022-09-01T12:58:02;101795.47;;;21.16;49.17
31082;BME280;17737;52.586;13.284;2022-09-01T13:00:34;101785.28;;;21.05;49.43
31082;BME280;17737;52.586;13.284;2022-09-01T13:03:19;101791.56;;;21.09;49.54
31082;BME280;17737;52.586;13.284;2022-09-01T13:05:50;101792.38;;;21.13;49.54
31082;BME280;17737;52.586;13.284;2022-09-01T13:08:21;101788.44;;;21.22;49.20
31082;BME280;17737;52.586;13.284;2022-09-01T13:10:54;101787.34;;;21.44;49.32
31082;BME280;17737;52.586;13.284;2022-09-01T13:13:26;101792.34;;;21.99;47.78
31082;BME280;17737;52.586;13.284;2022-09-01T13:15:56;101791.22;;;21.93;47.41
31082;BME280;17737;52.586;13.284;2022-09-01T13:18:26;101796.31;;;21.88;45.93